CheckWX is a tool to help pilots better visualize weather data.  It is not intended as a substitute for an official pre-flight weather briefing.

15:14:40 UTC

KFWA METAR
Fort Wayne International Airport
Fort Wayne, Indiana, USA
Current

21 mins ago

KFWA 261454Z 24009KT 10SM FEW011 OVC120 21/18 A3005 RMK AO2 SLP171 60000 T02110178 50003
Observed
May-26 @ 14:54 UTC
Wind
  • 240° at 9 KTS
Visibility
10 SM
Flight Rules
VFR
Cloud Levels
  • Few at 1,100' AGL
  • Overcast at 12,000' AGL
Temperature
21°C / 70°F
Dewpoint
18°C / 64°F
Humidity
83%
Altimeter
30.05" Hg
Pressure
1017.62 hPa
Previous

1 hour ago

KFWA 261354Z 25006KT 10SM FEW010 BKN110 21/18 A3006 RMK AO2 RAB05E19 SLP173 P0000 T02060178
Observed
May-26 @ 13:54 UTC
Wind
  • 250° at 6 KTS
Visibility
10 SM
Flight Rules
VFR
Cloud Levels
  • Few at 1,000' AGL
  • Broken at 11,000' AGL
Temperature
21°C / 70°F
Dewpoint
18°C / 64°F
Humidity
83%
Altimeter
30.06" Hg
Pressure
1017.92 hPa
Current Rain
0.01"
Previous

2 hours ago

KFWA 261254Z 24007KT 10SM FEW075 OVC100 19/17 A3007 RMK AO2 RAB16E53 SLP179 P0000 T01940172
Observed
May-26 @ 12:54 UTC
Wind
  • 240° at 7 KTS
Visibility
10 SM
Flight Rules
VFR
Cloud Levels
  • Few at 7,500' AGL
  • Overcast at 10,000' AGL
Temperature
19°C / 66°F
Dewpoint
17°C / 63°F
Humidity
88%
Altimeter
30.07" Hg
Pressure
1018.32 hPa
Current Rain
0.01"